Ana Sayfa
METAR-TAF:

METAR-TAF

Havaalanları :

Fort Bragg, Kuzey Carolina, Amerika Birleşik Devletleri

Enlem: 35-08N, Boylam: 078-56W, yükseklik: 74 m

Güncel hava durumu gözlemi

Rapor saat 23:56 UTC de 29 dakika önce yapıldı.
Sakin rüzgar
Sıcaklık 15°C
Nem 100%
Basınç 1017 hPa
Görüş mesafesi: 16.1 km
Açık gökyüzü

METAR: KFBG 232356Z AUTO 00000KT 10SM CLR 15/15 A3003 RMK AO2 SLP172 T01520146 10244 20152 52014 $

Saat: 20:25 (00:25 UTC)

Tahmin

Rapor saat 17:00 UTC de 7 saat ve 25 dakika önce yapıldı.
Ayın 23'si saat 17 UTC'den ayın 24'si saat 23 UTC'ye kadar geçerli Tahmin
Rüzgar kuzey/kuzeydoğudan 9 kt
Görüş mesafesi 10 km veya daha fazla
Açık gökyüzü
Dönüşüyor
ayın 24'si saat 07 UTC'den ayın 24'si saat 08 UTC'ye kadar
Rüzgar güneydoğudan 6 kt
Görüş mesafesi 10 km veya daha fazla
10000 ft yükseklikte az bulutlu

TAF: KFBG 231700Z 2317/2423 03009KT 9999 SKC QNH3004INS BECMG 2407/2408 14006KT 9999 FEW100 QNH3011INS TX24/2321Z TN12/2411Z

4.000'den fazla havaalanı için hava durumu gözlemleri ve tahminleri (METAR ve TAF raporları).

Kullanılabilir istasyonlar harita üzerinde sarı ve kırmızı noktalarla gösterilir.

İstasyonun adını görmek için fareyi noktanın üzerinde gezdirin.

Sonrasında hava gözlem ve tahminlerini görmek için tıklayın.

Haritayı değiştirmek için: yaklaştırmak için siyah artı işaretli yeşil düğmeye ve uzaklaştırmak için de eksi işaretli düğmeye hızla tıklayın; bitişik haritalar için yeşil okları kullanın.


METAR-TAF: